Impros — D5BS7 — position and weather

sailwx.info

Track history (hours):
 
Tides and Currents Weather Stations Pressure Air Temp Water Temp Dewpoint Dewpoint Depression Visibility Wind Speed Wind Dir Waves Ship Positions

Impros

Last reported at 2015-Jul-24 04:29 UTC. Time now 2015-Aug-05 02:25 UTC.
Position N 03°17' E 100°32'.
Warning: this ship's position is 11 days out of date.

Length 244 m; draft 11 m.

Type: Tanker. MMSI: 636015595.

Date/timePositionNaut miles runAvg speedWind from/ knotsBaromVisibWave heightAir tempDewpointWater temp
2015-Jul-24 04:29N 03°17' E 100°32'1011.1
2015-Jul-24 03:33N 03°10' E 100°40'2010.1
2015-Jul-24 01:33N 02°55' E 100°54'3110.3
2015-Jul-23 22:33N 02°40' E 101°21'2311.6
2015-Jul-23 20:33N 02°27' E 101°40'1111.3
2015-Jul-23 19:33N 02°20' E 101°49'1110.8
2015-Jul-23 18:30N 02°13' E 101°58'6210.3
2015-Jul-23 12:30N 01°41' E 102°52'  
2015-Jul-19 00:33N 01°12' E 103°52'10 9.7
2015-Jul-18 23:33N 01°15' E 104°01'10 9.6
2015-Jul-18 22:29N 01°17' E 104°11'  
Track history (hours):
 
Tides and Currents Weather Stations Pressure Air Temp Water Temp Dewpoint Dewpoint Depression Visibility Wind Speed Wind Dir Waves Ship Positions

Impros

Last reported at 2015-Jul-24 04:29 UTC. Time now 2015-Aug-05 02:25 UTC.
Position N 03°17' E 100°32'.
Warning: this ship's position is 11 days out of date.

Length 244 m; draft 11 m.

Type: Tanker. MMSI: 636015595.

Date/timePositionNaut miles runAvg speedWind from/ knotsBaromVisibWave heightAir tempDewpointWater temp
2015-Jul-24 04:29N 03°17' E 100°32'1011.1
2015-Jul-24 03:33N 03°10' E 100°40'2010.1
2015-Jul-24 01:33N 02°55' E 100°54'3110.3
2015-Jul-23 22:33N 02°40' E 101°21'2311.6
2015-Jul-23 20:33N 02°27' E 101°40'1111.3
2015-Jul-23 19:33N 02°20' E 101°49'1110.8
2015-Jul-23 18:30N 02°13' E 101°58'6210.3
2015-Jul-23 12:30N 01°41' E 102°52'  
2015-Jul-19 00:33N 01°12' E 103°52'10 9.7
2015-Jul-18 23:33N 01°15' E 104°01'10 9.6
2015-Jul-18 22:29N 01°17' E 104°11'  

Dump ship's entire track history